首页
METAR-TAF:

METAR-TAF

机场 :

Philip Billard Municipal Airport

托皮卡, 堪薩斯州, 美国

纬度: 39-04-21N, 经度: 095-37-33W, 海拔: 268米

当前天气观测

该预报发布于23分钟前的21:53 UTC
风速11节,风向南转西南
温度 -2°C
湿度 39%
气压 1029 hPa
能見度: 16.1公里
天空无云

METAR: KTOP 122153Z 20011KT 10SM CLR M02/M14 A3040 RMK AO2 SLP308 T10171139

时间: 16:16 (22:16 UTC)

预报

该预报发布于4小时和41分钟前的17:35 UTC
预报有效从12日的 18点(UTC)到 13日的 18点(UTC)
风速8节,风向
能見度: 10公里
天空无云
从 13日的 0500点(UTC)
风速10节,风向
能見度: 10公里
天空无云
从 13日的 1500点(UTC)
风速12节,风向南转西南
能見度: 10公里
少量云层高于25000英尺

TAF: KTOP 121735Z 1218/1318 18008KT P6SM SKC FM130500 19010KT P6SM SKC WS015/22045KT FM131500 20012KT P6SM FEW250

超过4000个机场的气象观测和天气预报(METAR&TAF报告)。

可查询的气象台以黄色和红色小点在地图上表示。

将鼠标移到小点上方,可查看气象台名称。

然后点击查看天气观测和预报。

如需切换地图:点击带黑十字的绿色按钮放大地图;点击带横线的绿色按钮缩小地图;或者点击绿色箭头查看邻近地区的地图。


METAR-TAF: